createdAt,value
2017-12-02T21:28:57.628Z,17.87
2017-12-02T21:31:29.114Z,16.80
2017-12-02T21:34:03.072Z,18.27
2017-12-02T21:36:36.350Z,17.87
2017-12-02T21:39:13.127Z,19.07
2017-12-02T21:41:45.363Z,17.97
2017-12-02T21:44:15.309Z,18.30
2017-12-02T21:46:46.189Z,18.47
2017-12-02T21:49:21.242Z,18.50
2017-12-02T21:51:52.286Z,19.30
2017-12-02T21:54:52.526Z,19.47
2017-12-02T21:57:25.668Z,17.70
2017-12-02T21:59:57.312Z,18.57
2017-12-02T22:02:29.505Z,18.33
2017-12-02T22:04:58.785Z,17.57
2017-12-02T22:07:31.825Z,19.53
2017-12-02T22:20:10.271Z,18.90
2017-12-02T22:22:43.678Z,19.37
2017-12-02T22:25:13.837Z,17.70
2017-12-02T22:27:44.421Z,17.83
2017-12-02T22:30:17.061Z,19.80
2017-12-02T22:32:49.332Z,18.47
2017-12-02T22:35:21.511Z,18.07
2017-12-02T22:37:53.585Z,19.43
2017-12-02T22:40:40.184Z,19.20
2017-12-02T22:43:10.619Z,17.60
2017-12-02T22:45:42.564Z,17.83
2017-12-02T22:48:14.679Z,17.27
2017-12-02T22:50:48.710Z,18.30
2017-12-02T22:53:20.432Z,17.47
2017-12-02T22:55:52.676Z,17.43
2017-12-02T22:58:24.492Z,17.93
2017-12-02T23:00:56.600Z,16.33
2017-12-02T23:03:27.283Z,17.27
2017-12-02T23:05:59.297Z,16.77
2017-12-02T23:08:30.381Z,15.80
2017-12-02T23:14:43.882Z,15.27
2017-12-02T23:17:14.595Z,17.30
2017-12-02T23:19:45.001Z,15.30
2017-12-02T23:22:16.891Z,16.07
2017-12-02T23:25:08.590Z,16.53
2017-12-02T23:27:40.005Z,16.20
2017-12-02T23:30:09.477Z,15.13
2017-12-02T23:32:39.787Z,15.53
2017-12-02T23:35:13.510Z,15.33
2017-12-02T23:37:48.700Z,14.63
2017-12-02T23:40:21.084Z,15.00
2017-12-02T23:42:54.551Z,14.40
2017-12-02T23:45:27.656Z,14.80
2017-12-02T23:47:58.574Z,13.90
2017-12-02T23:50:32.933Z,14.40
2017-12-02T23:53:04.330Z,14.93
2017-12-02T23:55:57.463Z,15.30
2017-12-02T23:58:27.364Z,14.43
